Latest Weather Observations for Perth Airport

IDW60801

Issued at 2:33 pm WST Sunday 15 September 2019 (issued every 10 minutes, with the page automatically refreshed every 10 minutes)

About weather observations | Map of weather stations | Latest weather observations for WA | Other Formats
Station Details ID: 009021 Name: PERTH AIRPORT Lat: -31.93 Lon: 115.98 Height: 15.4 m
Data from the previous 72 hours. | See also: Recent months at Perth Airport
Date/Time
WST
Temp
°C
App
Temp
°C
Dew
Point
°C
Rel
Hum
%
Delta-T
°C
Wind Press
QNH
hPa
Press
MSL
hPa
Rain since
9am
mm
Dir  Spd
km/h
Gust
km/h
Spd
kts
Gust
kts
15/02:00pm 22.3 19.9 12.5 53 5.6 WSW 17 26 9 14 1022.0 1022.0 0.0
15/01:30pm 23.3 21.0 12.9 52 6.0 WSW 17 28 9 15 1022.2 1022.2 0.0
15/01:00pm 22.4 21.5 11.5 50 6.1 E 7 11 4 6 1022.5 1022.5 0.0
15/12:30pm 22.0 20.1 11.7 52 5.8 SSW 13 19 7 10 1023.0 1023.0 0.0
15/12:00pm 21.0 19.8 11.6 55 5.2 ESE 9 13 5 7 1023.3 1023.3 0.0
15/11:30am 21.6 20.4 12.7 57 5.1 SW 11 17 6 9 1023.7 1023.7 0.0
15/11:00am 20.3 19.0 11.2 56 5.0 SSE 9 11 5 6 1023.9 1023.9 0.0
15/10:30am 19.0 17.8 11.6 62 4.1 W 9 13 5 7 1024.0 1024.0 0.0
15/10:00am 18.6 17.9 11.4 63 3.9 SSW 6 11 3 6 1024.4 1024.4 0.0
15/09:30am 18.5 17.9 12.3 67 3.4 SSW 7 11 4 6 1024.5 1024.5 0.0
15/09:00am 17.2 16.9 11.5 69 3.1 S 4 9 2 5 1024.6 1024.6 0.0
15/08:30am 16.6 15.7 11.5 72 2.8 SSW 7 11 4 6 1024.8 1024.8 0.0
15/08:00am 15.6 13.5 11.0 74 2.4 SSW 13 15 7 8 1024.8 1024.8 0.0
15/07:30am 14.2 12.1 11.2 82 1.6 SW 13 15 7 8 1024.6 1024.6 0.0
15/07:00am 12.5 11.2 11.4 93 0.6 SW 9 11 5 6 1024.2 1024.2 0.0
15/06:30am 10.7 9.0 9.9 95 0.4 SSW 9 11 5 6 1024.1 1024.1 0.0
15/06:00am 12.0 11.0 10.9 93 0.6 S 7 9 4 5 1023.7 1023.7 0.0
15/05:30am 12.1 10.3 10.7 91 0.7 SSW 11 13 6 7 1023.5 1023.5 0.0
15/05:00am 12.9 11.3 11.5 91 0.7 S 11 13 6 7 1023.4 1023.4 0.0
15/04:30am 13.3 11.0 11.7 90 0.9 SSW 15 17 8 9 1023.0 1023.0 0.0
15/04:00am 13.7 11.4 11.8 88 1.0 S 15 19 8 10 1023.0 1023.0 0.0
15/03:30am 14.2 11.0 11.9 86 1.2 S 20 28 11 15 1023.0 1023.0 0.0
15/03:00am 14.5 11.8 11.8 84 1.4 SSW 17 20 9 11 1023.2 1023.2 0.0
15/02:30am 14.6 11.0 11.7 83 1.6 SSW 22 30 12 16 1022.9 1022.9 0.0
15/02:00am 15.0 12.0 12.0 82 1.6 SSW 19 26 10 14 1023.0 1023.0 0.0
15/01:30am 15.2 11.7 12.2 82 1.6 SSW 22 28 12 15 1023.1 1023.1 0.0
15/01:00am 15.5 12.1 12.6 83 1.6 SSW 22 32 12 17 1023.1 1023.1 0.0
15/12:30am 15.8 13.0 13.3 85 1.4 SSW 20 30 11 16 1023.2 1023.2 0.0
15/12:00am 16.2 13.8 13.9 86 1.3 SSW 19 24 10 13 1023.2 1023.2 0.0
 
Date/Time
WST
Temp
°C
App
Temp
°C
Dew
Point
°C
Rel
Hum
%
Delta-T
°C
Wind Press
QNH
hPa
Press
MSL
hPa
Rain since
9am
mm
Dir  Spd
km/h
Gust
km/h
Spd
kts
Gust
kts
14/11:30pm 16.2 13.9 14.0 87 1.2 SSW 19 24 10 13 1022.9 1022.9 0.0
14/11:00pm 16.2 13.9 14.0 87 1.2 S 19 28 10 15 1022.6 1022.6 0.0
14/10:30pm 16.4 14.5 14.2 87 1.3 S 17 20 9 11 1023.0 1023.0 0.0
14/10:00pm 16.9 14.7 14.4 85 1.4 S 19 22 10 12 1023.5 1023.5 0.0
14/09:30pm 17.4 15.1 14.7 84 1.6 SSW 20 30 11 16 1023.9 1023.9 0.0
14/09:00pm 17.7 15.1 14.8 83 1.7 SSW 22 30 12 16 1023.7 1023.7 0.0
14/08:30pm 18.0 16.1 15.1 83 1.7 SSW 19 24 10 13 1023.5 1023.5 0.0
14/08:00pm 18.1 16.5 15.0 82 1.8 SW 17 22 9 12 1023.1 1023.1 0.0
14/07:30pm 18.5 17.0 15.2 81 1.9 SW 17 19 9 10 1022.8 1022.8 0.0
14/07:00pm 19.0 17.3 14.7 76 2.5 SW 17 20 9 11 1022.5 1022.5 0.0
14/06:30pm 19.5 18.2 14.7 74 2.8 SW 15 20 8 11 1022.1 1022.1 0.0
14/06:00pm 20.0 18.4 15.0 73 2.9 SSW 17 19 9 10 1021.6 1021.6 0.0
14/05:30pm 20.5 18.9 15.1 71 3.2 SSW 17 22 9 12 1021.3 1021.3 0.0
14/05:00pm 21.4 19.2 15.0 67 3.8 WSW 20 26 11 14 1021.4 1021.4 0.0
14/04:30pm 22.2 19.4 15.3 65 4.1 SW 24 33 13 18 1021.4 1021.4 0.0
14/04:00pm 23.0 21.0 15.6 63 4.4 W 20 28 11 15 1021.2 1021.2 0.0
14/03:30pm 22.7 21.7 15.5 64 4.3 WSW 15 24 8 13 1021.1 1021.1 0.0
14/03:00pm 23.2 21.8 15.5 62 4.6 WSW 17 28 9 15 1021.2 1021.2 0.0
14/02:30pm 23.7 21.9 16.0 62 4.7 W 20 28 11 15 1021.2 1021.2 0.0
14/02:00pm 23.4 21.4 15.5 61 4.7 W 20 32 11 17 1021.4 1021.4 0.0
14/01:30pm 23.4 21.5 15.2 60 4.9 W 19 24 10 13 1021.7 1021.7 0.0
14/01:00pm 24.0 22.8 16.0 61 4.8 W 17 22 9 12 1021.7 1021.7 0.0
14/12:30pm 22.6 21.4 16.2 67 3.9 WSW 17 26 9 14 1022.2 1022.2 0.0
14/12:00pm 23.1 22.2 15.9 64 4.3 WSW 15 19 8 10 1022.6 1022.6 0.0
14/11:30am 22.5 22.7 15.8 66 4.0 SW 9 17 5 9 1022.6 1022.6 0.0
14/11:00am 22.5 22.7 15.8 66 4.0 SSW 9 13 5 7 1023.2 1023.2 0.0
14/10:30am 22.6 22.8 15.7 65 4.1 SW 9 15 5 8 1023.5 1023.5 0.0
14/10:00am 21.6 21.1 15.9 70 3.4 WSW 13 17 7 9 1023.8 1023.8 0.0
14/09:30am 21.2 21.6 16.4 74 2.9 SSW 9 15 5 8 1023.8 1023.8 0.0
14/09:00am 19.7 20.5 14.7 73 2.9 SSW 4 7 2 4 1023.8 1023.8 0.0
14/08:30am 19.3 19.3 14.1 72 3.0 NE 7 9 4 5 1023.6 1023.6 0.0
14/08:00am 17.0 16.3 13.3 79 2.1 NE 9 11 5 6 1023.3 1023.3 0.0
14/07:30am 14.8 15.8 13.2 90 0.9 CALM 0 0 0 0 1022.8 1022.8 0.0
14/07:00am 12.9 12.3 12.4 97 0.3 N 7 9 4 5 1022.8 1022.8 0.0
14/06:30am 12.2 12.7 11.6 96 0.3 CALM 0 0 0 0 1022.3 1022.3 0.0
14/06:00am 12.5 11.9 11.6 94 0.5 ENE 6 7 3 4 1022.1 1022.1 0.0
14/05:30am 13.5 12.9 12.4 93 0.6 NNE 7 11 4 6 1022.3 1022.3 0.0
14/05:00am 14.1 12.6 13.0 93 0.6 NNE 13 15 7 8 1022.1 1022.1 0.0
14/04:30am 13.4 12.9 12.5 94 0.5 E 7 7 4 4 1021.6 1021.6 0.0
14/04:00am 13.6 13.0 12.2 91 0.8 S 7 9 4 5 1021.6 1021.6 0.0
14/03:30am 14.3 13.8 12.7 90 0.9 SSW 7 9 4 5 1021.4 1021.4 0.0
14/03:00am 14.5 14.1 12.5 88 1.1 NW 6 7 3 4 1021.1 1021.1 0.0
14/02:30am 15.0 14.6 12.9 87 1.2 WNW 7 9 4 5 1021.1 1021.1 0.0
14/02:00am 15.0 14.6 12.9 87 1.2 NNE 7 9 4 5 1020.5 1020.5 0.0
14/01:30am 15.7 15.2 12.8 83 1.6 NNW 7 7 4 4 1021.0 1021.0 0.0
14/01:00am 16.1 15.2 12.5 79 2.0 N 9 11 5 6 1021.2 1021.2 0.0
14/12:30am 16.3 15.5 12.8 80 1.9 NE 9 13 5 7 1021.5 1021.5 0.0
14/12:00am 16.2 16.5 14.6 90 0.9 NE 6 9 3 5 1021.9 1021.9 0.0
 
Date/Time
WST
Temp
°C
App
Temp
°C
Dew
Point
°C
Rel
Hum
%
Delta-T
°C
Wind Press
QNH
hPa
Press
MSL
hPa
Rain since
9am
mm
Dir  Spd
km/h
Gust
km/h
Spd
kts
Gust
kts
13/11:30pm 16.9 16.7 14.7 87 1.3 S 9 13 5 7 1022.0 1022.0 0.0
13/11:00pm 17.7 17.3 15.3 86 1.4 S 11 13 6 7 1022.5 1022.5 0.0
13/10:30pm 18.3 17.5 15.2 82 1.8 SSW 13 17 7 9 1022.6 1022.6 0.0
13/10:00pm 18.6 17.8 15.1 80 2.0 SSW 13 17 7 9 1022.4 1022.4 0.0
13/09:30pm 18.5 18.2 15.4 82 1.8 SSW 11 15 6 8 1022.5 1022.5 0.0
13/09:00pm 18.5 17.9 15.7 84 1.6 SSW 13 15 7 8 1022.5 1022.5 0.0
13/08:30pm 18.8 18.1 15.5 81 1.9 S 13 15 7 8 1022.6 1022.6 0.0
13/08:00pm 19.0 18.2 15.1 78 2.3 SSW 13 17 7 9 1022.5 1022.5 0.0
13/07:30pm 19.5 18.0 14.1 71 3.1 SW 15 20 8 11 1022.2 1022.2 0.0
13/07:00pm 20.3 19.0 13.7 66 3.8 SW 13 17 7 9 1021.8 1021.8 0.0
13/06:30pm 20.9 19.5 13.4 62 4.3 SW 13 17 7 9 1021.1 1021.1 0.0
13/06:00pm 22.0 20.8 13.9 60 4.7 WSW 13 17 7 9 1021.0 1021.0 0.0
13/05:30pm 23.1 21.3 13.3 54 5.7 WSW 15 20 8 11 1020.8 1020.8 0.0
13/05:00pm 23.4 21.5 14.1 56 5.4 WSW 17 26 9 14 1020.8 1020.8 0.0
13/04:30pm 24.4 23.2 13.9 52 6.2 WSW 13 19 7 10 1020.6 1020.6 0.0
13/04:00pm 24.2 23.3 13.7 52 6.1 W 11 15 6 8 1020.4 1020.4 0.0
13/03:30pm 24.2 22.2 14.0 53 6.0 WSW 17 24 9 13 1020.7 1020.7 0.0
13/03:00pm 25.1 22.9 13.3 48 6.9 WSW 17 20 9 11 1020.6 1020.6 0.0
13/02:30pm 26.6 23.8 12.6 42 8.1 W 19 26 10 14 1020.9 1020.9 0.0
13/02:00pm 26.2 24.4 13.3 45 7.5 W 15 20 8 11 1021.0 1021.0 0.0
13/01:30pm 27.1 25.2 14.1 44 7.8 WSW 17 24 9 13 1021.2 1021.2 0.0
13/01:00pm 26.1 24.3 13.2 44 7.5 W 15 24 8 13 1021.4 1021.4 0.0
13/12:30pm 26.4 25.7 14.2 47 7.3 WNW 11 19 6 10 1021.7 1021.7 0.0
13/12:00pm 25.7 25.3 14.2 49 6.8 NNW 9 20 5 11 1022.1 1022.1 0.0
13/11:30am 24.5 24.4 14.0 52 6.2 N 7 11 4 6 1022.5 1022.5 0.0
13/11:00am 23.5 24.0 15.0 59 5.1 N 6 9 3 5 1022.8 1022.8 0.0
13/10:30am 22.6 23.4 14.7 61 4.7 W 4 9 2 5 1022.9 1022.9 0.0
13/10:00am 21.7 22.4 14.6 64 4.2 WSW 4 9 2 5 1023.2 1023.2 0.0
13/09:30am 20.8 21.0 14.7 68 3.6 SSE 7 13 4 7 1023.6 1023.6 0.0
13/09:00am 19.6 19.8 14.8 74 2.8 S 7 9 4 5 1023.8 1023.8 0.0
13/08:30am 17.9 17.5 14.2 79 2.1 S 9 11 5 6 1023.9 1023.9 0.0
13/08:00am 16.6 15.9 14.4 87 1.3 S 11 13 6 7 1023.8 1023.8 0.0
13/07:30am 14.9 14.4 13.8 93 0.6 SSW 9 11 5 6 1023.7 1023.7 0.0
13/07:00am 13.4 12.2 12.8 96 0.3 SSW 11 13 6 7 1023.5 1023.5 0.0
13/06:30am 12.3 11.1 11.7 96 0.3 S 9 13 5 7 1023.4 1023.4 0.0
13/06:00am 12.7 12.0 11.9 95 0.4 NE 7 11 4 6 1023.3 1023.3 0.0
13/05:30am 12.8 11.7 11.9 94 0.5 NNE 9 11 5 6 1023.0 1023.0 0.0
13/05:00am 13.6 13.3 12.7 94 0.5 ENE 6 7 3 4 1022.6 1022.6 0.0
13/04:30am 14.1 13.1 13.3 95 0.4 NNE 11 15 6 8 1022.6 1022.6 0.0
13/04:00am 11.7 10.8 11.2 97 0.3 NNW 7 9 4 5 1022.4 1022.4 0.0
13/03:30am 11.4 10.5 10.8 96 0.3 NNE 6 7 3 4 1022.3 1022.3 0.0
13/03:00am 12.0 11.1 11.4 96 0.3 N 7 7 4 4 1022.4 1022.4 0.0
13/02:30am 12.5 11.7 11.6 94 0.5 NNE 7 9 4 5 1022.5 1022.5 0.0
13/02:00am 13.2 12.6 12.3 94 0.5 N 7 7 4 4 1022.8 1022.8 0.0
13/01:30am 13.9 13.1 13.0 94 0.5 NNE 9 11 5 6 1023.0 1023.0 0.0
13/01:00am 14.1 13.4 13.1 94 0.5 NE 9 13 5 7 1023.3 1023.3 0.0
13/12:30am 13.6 12.5 13.0 96 0.3 ENE 11 15 6 8 1023.8 1023.8 0.0
13/12:00am 13.6 12.9 13.1 97 0.3 ENE 9 11 5 6 1024.1 1024.1 0.0
 
Date/Time
WST
Temp
°C
App
Temp
°C
Dew
Point
°C
Rel
Hum
%
Delta-T
°C
Wind Press
QNH
hPa
Press
MSL
hPa
Rain since
9am
mm
Dir  Spd
km/h
Gust
km/h
Spd
kts
Gust
kts
12/11:30pm 13.7 14.2 12.8 94 0.5 NW 2 7 1 4 1024.3 1024.3 0.0
12/11:00pm 14.3 13.5 13.0 92 0.7 WSW 9 15 5 8 1024.5 1024.5 0.0
12/10:30pm 15.3 15.6 13.5 89 1.0 SW 4 9 2 5 1024.6 1024.6 0.0
12/10:00pm 17.1 17.2 14.4 84 1.5 SSW 7 9 4 5 1024.6 1024.6 0.0
12/09:30pm 17.3 16.6 14.4 83 1.7 S 11 15 6 8 1024.5 1024.5 0.0
12/09:00pm 17.6 16.1 14.1 80 2.0 S 15 17 8 9 1024.4 1024.4 0.0
12/08:30pm 18.2 17.1 14.3 78 2.2 SSW 13 15 7 8 1024.6 1024.6 0.0
12/08:00pm 18.3 16.9 14.6 79 2.1 SW 15 19 8 10 1024.3 1024.3 0.0
12/07:30pm 18.0 17.2 13.9 77 2.3 WSW 11 15 6 8 1023.6 1023.6 0.0
12/07:00pm 19.5 18.4 14.3 72 3.0 WSW 13 17 7 9 1023.3 1023.3 0.0
12/06:30pm 19.7 19.2 13.9 69 3.3 W 9 13 5 7 1023.2 1023.2 0.0
12/06:00pm 20.5 19.7 13.9 66 3.8 WNW 11 13 6 7 1023.3 1023.3 0.0
12/05:30pm 21.5 20.0 14.2 63 4.3 WSW 15 22 8 12 1023.3 1023.3 0.0
12/05:00pm 22.4 20.9 13.2 56 5.3 WSW 13 17 7 9 1023.2 1023.2 0.0
12/04:30pm 22.4 20.6 13.2 56 5.3 WSW 15 20 8 11 1023.2 1023.2 0.0
12/04:00pm 22.4 19.1 12.9 55 5.4 WSW 22 32 12 17 1023.4 1023.4 0.0
12/03:30pm 22.4 18.7 14.0 59 4.9 WSW 26 33 14 18 1023.4 1023.4 0.0
12/03:00pm 23.5 20.1 13.7 54 5.7 WSW 24 32 13 17 1023.0 1023.0 0.0

Other formats

Comma delimited format used in spreadsheet applications
http://www.bom.gov.au/fwo/IDW60801/IDW60801.94610.axf

JavaScript Object Notation format (JSON) in row-major order
http://www.bom.gov.au/fwo/IDW60801/IDW60801.94610.json

Data quality

Most of these data are generated automatically and are frequently updated. Quality checks on data are not normally performed. It is possible for incorrect values to appear. Refer to information at About Latest Weather Observations and please check the disclaimer before using these data.